createdAt,value
2022-12-12T00:02:18.938Z,99133.10
2022-12-12T00:04:45.515Z,99133.50
2022-12-12T00:07:12.156Z,99133.41
2022-12-12T00:09:38.593Z,99133.94
2022-12-12T00:12:05.223Z,99134.27
2022-12-12T00:14:31.739Z,99136.06
2022-12-12T00:16:59.575Z,99138.55
2022-12-12T00:19:28.300Z,99134.71
2022-12-12T00:21:54.610Z,99129.35
2022-12-12T00:24:21.005Z,99127.05
2022-12-12T00:26:47.378Z,99125.91
2022-12-12T00:29:13.713Z,99128.83
2022-12-12T00:31:40.981Z,99123.48
2022-12-12T00:34:07.502Z,99120.58
2022-12-12T00:36:33.876Z,99120.37
2022-12-12T00:39:01.610Z,99120.23
2022-12-12T00:41:28.252Z,99125.93
2022-12-12T00:43:54.577Z,99124.78
2022-12-12T00:46:22.926Z,99135.23
2022-12-12T00:48:50.212Z,99134.16
2022-12-12T00:51:19.797Z,99135.27
2022-12-12T00:53:46.732Z,99138.41
2022-12-12T00:56:15.871Z,99140.02
2022-12-12T00:58:42.284Z,99140.17
2022-12-12T01:01:17.831Z,99139.41
2022-12-12T01:03:45.023Z,99141.13
2022-12-12T01:06:11.724Z,99147.28
2022-12-12T01:08:38.953Z,99145.19
2022-12-12T01:11:07.885Z,99146.54
2022-12-12T01:13:34.787Z,99147.80
2022-12-12T01:16:01.202Z,99148.83
2022-12-12T01:18:28.614Z,99152.31
2022-12-12T01:20:54.960Z,99150.55
2022-12-12T01:23:21.345Z,99149.55
2022-12-12T01:25:47.849Z,99154.18
2022-12-12T01:28:14.254Z,99149.04
2022-12-12T01:30:40.992Z,99154.12
2022-12-12T01:33:07.557Z,99147.75
2022-12-12T01:35:34.240Z,99147.40
2022-12-12T01:38:00.605Z,99143.48
2022-12-12T01:40:28.646Z,99146.30
2022-12-12T01:42:55.287Z,99144.86
2022-12-12T01:45:52.745Z,99143.27
2022-12-12T01:48:20.549Z,99142.94
2022-12-12T01:50:46.968Z,99143.31
2022-12-12T01:53:15.855Z,99145.98
2022-12-12T01:55:42.267Z,99143.11
2022-12-12T01:58:08.814Z,99140.46
2022-12-12T02:00:35.310Z,99143.15
2022-12-12T02:03:01.688Z,99139.99
2022-12-12T02:05:41.803Z,99138.52
2022-12-12T02:08:09.183Z,99145.98
2022-12-12T02:10:35.700Z,99141.78
2022-12-12T02:13:06.619Z,99142.06
2022-12-12T02:15:47.985Z,99145.99
2022-12-12T02:18:28.507Z,99138.45
2022-12-12T02:21:16.471Z,99140.23
2022-12-12T02:24:09.067Z,99141.58
2022-12-12T02:26:44.158Z,99144.24
2022-12-12T02:29:48.498Z,99146.04
2022-12-12T02:32:20.627Z,99144.73
2022-12-12T02:35:07.890Z,99143.53
2022-12-12T02:37:43.332Z,99147.83
2022-12-12T02:40:33.729Z,99149.65
2022-12-12T02:43:13.502Z,99147.98
2022-12-12T02:45:58.351Z,99150.04
2022-12-12T02:48:40.312Z,99148.34
2022-12-12T02:51:08.270Z,99150.53
2022-12-12T02:53:34.595Z,99149.52
2022-12-12T02:56:06.999Z,99146.53
2022-12-12T02:58:36.013Z,99147.36
2022-12-12T03:01:24.503Z,99140.65
2022-12-12T03:04:21.820Z,99141.09
2022-12-12T03:07:29.984Z,99139.79
2022-12-12T03:10:19.146Z,99141.17
2022-12-12T03:12:52.984Z,99140.25
2022-12-12T03:15:27.290Z,99143.42
2022-12-12T03:18:25.205Z,99148.61
2022-12-12T03:21:03.065Z,99151.86
2022-12-12T03:23:38.809Z,99148.83
2022-12-12T03:26:11.804Z,99146.84
2022-12-12T03:28:46.969Z,99147.68
2022-12-12T03:31:15.131Z,99147.09
2022-12-12T03:33:45.517Z,99145.98
2022-12-12T03:36:26.201Z,99147.66
2022-12-12T03:38:56.770Z,99149.02
2022-12-12T03:41:26.982Z,99147.70
2022-12-12T03:44:25.865Z,99140.05
2022-12-12T03:47:05.994Z,99142.13
2022-12-12T03:49:38.994Z,99141.48
2022-12-12T03:52:13.427Z,99139.13
2022-12-12T03:54:47.600Z,99131.48
2022-12-12T03:57:38.268Z,99134.25
2022-12-12T04:00:09.741Z,99133.10
2022-12-12T04:03:22.729Z,99134.50
2022-12-12T04:06:22.552Z,99137.73
2022-12-12T04:09:08.303Z,99136.93
2022-12-12T04:11:57.684Z,99139.09
2022-12-12T04:14:44.781Z,99140.47
2022-12-12T04:17:14.757Z,99138.34
2022-12-12T04:20:13.914Z,99129.13
2022-12-12T04:23:04.597Z,99135.67
2022-12-12T04:26:14.155Z,99134.58
2022-12-12T04:28:45.936Z,99133.83
2022-12-12T04:31:13.253Z,99129.73
2022-12-12T04:33:47.088Z,99127.05
2022-12-12T04:36:14.828Z,99126.34
2022-12-12T04:38:43.305Z,99123.04
2022-12-12T04:41:10.662Z,99124.95
2022-12-12T04:43:38.017Z,99128.39
2022-12-12T04:46:07.152Z,99127.48
2022-12-12T04:48:38.994Z,99123.80
2022-12-12T04:51:07.175Z,99120.65
2022-12-12T04:53:38.878Z,99120.47
2022-12-12T04:56:09.372Z,99117.79
2022-12-12T04:58:37.238Z,99122.04
2022-12-12T05:01:07.311Z,99120.08
2022-12-12T05:03:47.332Z,99124.42
2022-12-12T05:06:16.076Z,99123.89
2022-12-12T05:08:44.883Z,99124.46
2022-12-12T05:11:11.978Z,99123.31
2022-12-12T05:13:42.302Z,99122.39
2022-12-12T05:16:20.071Z,99125.53
2022-12-12T05:18:46.922Z,99127.16
2022-12-12T05:21:13.738Z,99122.20
2022-12-12T05:23:40.123Z,99124.57
2022-12-12T05:26:21.400Z,99124.54
2022-12-12T05:28:48.205Z,99122.17
2022-12-12T05:31:14.832Z,99120.99
2022-12-12T05:33:41.230Z,99119.11
2022-12-12T05:36:08.036Z,99120.80
2022-12-12T05:38:34.612Z,99122.67
2022-12-12T05:41:00.990Z,99125.80
2022-12-12T05:43:27.454Z,99123.59
2022-12-12T05:45:53.825Z,99124.16
2022-12-12T05:48:24.306Z,99126.25
2022-12-12T05:50:51.794Z,99123.55
2022-12-12T05:53:18.440Z,99119.71
2022-12-12T05:55:44.919Z,99119.10
2022-12-12T05:58:11.321Z,99111.57
2022-12-12T06:00:37.745Z,99117.23
2022-12-12T06:03:04.104Z,99118.41
2022-12-12T06:05:30.641Z,99116.98
2022-12-12T06:07:57.123Z,99120.44
2022-12-12T06:10:23.541Z,99117.08
2022-12-12T06:12:50.025Z,99121.27
2022-12-12T06:15:16.634Z,99119.98
2022-12-12T06:17:43.041Z,99123.94
2022-12-12T06:20:12.247Z,99123.58
2022-12-12T06:22:38.625Z,99124.36
2022-12-12T06:25:05.305Z,99128.12
2022-12-12T06:27:31.650Z,99126.48
2022-12-12T06:29:57.963Z,99132.14
2022-12-12T06:32:24.357Z,99132.73
2022-12-12T06:34:50.798Z,99139.59
2022-12-12T06:37:17.627Z,99138.66
2022-12-12T06:39:44.522Z,99138.08
2022-12-12T06:42:10.893Z,99141.77
2022-12-12T06:44:37.305Z,99138.25
2022-12-12T06:47:04.065Z,99137.27
2022-12-12T06:49:30.453Z,99142.18
2022-12-12T06:51:56.878Z,99133.84
2022-12-12T06:54:23.265Z,99138.45
2022-12-12T06:56:49.702Z,99140.94
2022-12-12T06:59:16.428Z,99152.39
2022-12-12T07:01:43.127Z,99151.77
2022-12-12T07:04:11.460Z,99149.20
2022-12-12T07:06:37.811Z,99150.28
2022-12-12T07:09:04.264Z,99151.73
2022-12-12T07:11:30.726Z,99152.05
2022-12-12T07:13:57.528Z,99152.79
2022-12-12T07:16:24.009Z,99151.85
2022-12-12T07:18:50.468Z,99147.74
2022-12-12T07:21:18.769Z,99155.59
2022-12-12T07:23:46.257Z,99152.08
2022-12-12T07:26:17.371Z,99149.45
2022-12-12T07:28:44.128Z,99153.83
2022-12-12T07:31:13.452Z,99154.95
2022-12-12T07:33:44.028Z,99157.13
2022-12-12T07:36:14.970Z,99160.91
2022-12-12T07:38:41.705Z,99164.81
2022-12-12T07:41:10.883Z,99159.85
2022-12-12T07:43:43.284Z,99162.80
2022-12-12T07:46:13.913Z,99164.41
2022-12-12T07:48:40.417Z,99166.09
2022-12-12T07:51:06.833Z,99174.98
2022-12-12T07:53:33.243Z,99173.77
2022-12-12T07:55:59.615Z,99175.83
2022-12-12T07:58:26.376Z,99181.83
2022-12-12T08:00:52.726Z,99176.26
2022-12-12T08:03:19.123Z,99179.27
2022-12-12T08:05:45.532Z,99174.84
2022-12-12T08:08:11.945Z,99174.95
2022-12-12T08:10:39.599Z,99176.27
2022-12-12T08:13:06.042Z,99175.02
2022-12-12T08:15:33.055Z,99174.86
2022-12-12T08:17:59.425Z,99178.83
2022-12-12T08:20:25.812Z,99176.33
2022-12-12T08:22:52.273Z,99180.81
2022-12-12T08:25:18.616Z,99181.40
2022-12-12T08:27:44.967Z,99181.05
2022-12-12T08:30:11.829Z,99187.88
2022-12-12T08:32:38.497Z,99194.34
2022-12-12T08:35:05.512Z,99192.31
2022-12-12T08:37:31.950Z,99192.02
2022-12-12T08:39:58.296Z,99198.81
2022-12-12T08:42:24.638Z,99195.52
2022-12-12T08:44:51.065Z,99199.84
2022-12-12T08:47:17.396Z,99200.08
2022-12-12T08:49:43.915Z,99204.86
2022-12-12T08:52:10.272Z,99206.36
2022-12-12T08:54:37.502Z,99211.90
2022-12-12T08:57:04.045Z,99213.73
2022-12-12T08:59:30.486Z,99210.19
2022-12-12T09:01:57.084Z,99215.48
2022-12-12T09:04:23.554Z,99214.09
2022-12-12T09:06:49.949Z,99213.13
2022-12-12T09:09:16.365Z,99208.40
2022-12-12T09:11:43.057Z,99217.08
2022-12-12T09:14:09.509Z,99214.73
2022-12-12T09:16:35.995Z,99220.09
2022-12-12T09:19:02.490Z,99219.25
2022-12-12T09:21:28.931Z,99220.71
2022-12-12T09:23:55.695Z,99222.54
2022-12-12T09:26:22.440Z,99223.68
2022-12-12T09:28:48.992Z,99229.04
2022-12-12T09:31:15.430Z,99231.35
2022-12-12T09:33:42.568Z,99230.50
2022-12-12T09:36:11.426Z,99233.07
2022-12-12T09:38:37.887Z,99228.53
2022-12-12T09:41:26.383Z,99227.11
2022-12-12T09:43:56.579Z,99231.27
2022-12-12T09:46:44.358Z,99229.80
2022-12-12T09:49:50.322Z,99229.48
2022-12-12T09:52:19.687Z,99229.90
2022-12-12T09:54:46.025Z,99226.08
2022-12-12T09:57:32.576Z,99228.98
2022-12-12T10:00:12.069Z,99228.41
2022-12-12T10:02:44.927Z,99232.61
2022-12-12T10:05:34.690Z,99233.54
2022-12-12T10:08:04.122Z,99232.61
2022-12-12T10:10:32.413Z,99234.15
2022-12-12T10:13:02.169Z,99237.64
2022-12-12T10:15:37.596Z,99237.36
2022-12-12T10:18:09.280Z,99240.02
2022-12-12T10:20:42.534Z,99238.88
2022-12-12T10:23:23.465Z,99233.92
2022-12-12T10:25:55.954Z,99227.83
2022-12-12T10:28:24.606Z,99233.44
2022-12-12T10:31:03.047Z,99235.69
2022-12-12T10:33:36.598Z,99232.76
2022-12-12T10:36:20.484Z,99231.51
2022-12-12T10:39:24.972Z,99226.83
2022-12-12T10:41:58.848Z,99230.89
2022-12-12T10:44:31.318Z,99228.49
2022-12-12T10:47:06.113Z,99229.75
2022-12-12T10:49:33.457Z,99227.33
2022-12-12T10:52:03.531Z,99228.92
2022-12-12T10:54:33.644Z,99231.80
2022-12-12T10:57:08.605Z,99234.21
2022-12-12T10:59:44.503Z,99233.09
2022-12-12T11:02:40.023Z,99229.54
2022-12-12T11:05:19.894Z,99230.64
2022-12-12T11:07:50.592Z,99232.66
2022-12-12T11:10:34.279Z,99231.48
2022-12-12T11:13:02.452Z,99233.36
2022-12-12T11:15:44.339Z,99236.05
2022-12-12T11:18:25.606Z,99233.67
2022-12-12T11:21:11.784Z,99233.80
2022-12-12T11:23:41.093Z,99224.71
2022-12-12T11:26:13.501Z,99222.77
2022-12-12T11:28:40.504Z,99223.98
2022-12-12T11:31:13.733Z,99227.34
2022-12-12T11:33:47.626Z,99225.23
2022-12-12T11:36:16.554Z,99226.86
2022-12-12T11:38:51.981Z,99231.29
2022-12-12T11:41:21.146Z,99230.22
2022-12-12T11:43:47.402Z,99229.52
2022-12-12T11:46:13.765Z,99230.64
2022-12-12T11:48:42.997Z,99233.53
2022-12-12T11:51:10.298Z,99233.24
2022-12-12T11:53:39.717Z,99233.10
2022-12-12T11:56:32.454Z,99231.01
2022-12-12T11:59:37.213Z,99235.73
2022-12-12T12:02:22.878Z,99241.73
2022-12-12T12:05:01.953Z,99244.94
2022-12-12T12:07:34.181Z,99244.56
2022-12-12T12:10:08.043Z,99246.70
2022-12-12T12:12:49.884Z,99244.26
2022-12-12T12:15:27.388Z,99245.02
2022-12-12T12:18:06.402Z,99252.08
2022-12-12T12:20:37.896Z,99259.09
2022-12-12T12:23:13.219Z,99265.20
2022-12-12T12:26:15.209Z,99266.29
2022-12-12T12:29:09.117Z,99264.02
2022-12-12T12:32:17.096Z,99268.85
2022-12-12T12:35:02.737Z,99270.61
2022-12-12T12:37:55.306Z,99270.95
2022-12-12T12:40:41.574Z,99266.04
2022-12-12T12:43:26.803Z,99265.21
2022-12-12T12:46:00.858Z,99262.98
2022-12-12T12:48:32.189Z,99256.86
2022-12-12T12:51:17.122Z,99259.45
2022-12-12T12:53:54.960Z,99259.61
2022-12-12T12:56:29.910Z,99252.43
2022-12-12T12:59:04.066Z,99261.20
2022-12-12T13:01:46.591Z,99259.48
2022-12-12T13:04:17.348Z,99266.11
2022-12-12T13:06:53.464Z,99268.05
2022-12-12T13:09:34.391Z,99269.86
2022-12-12T13:12:27.014Z,99277.61
2022-12-12T13:15:07.618Z,99282.64
2022-12-12T13:17:48.149Z,99289.61
2022-12-12T13:20:19.286Z,99293.76
2022-12-12T13:22:53.804Z,99293.15
2022-12-12T13:25:28.081Z,99300.66
2022-12-12T13:27:55.269Z,99299.41
2022-12-12T13:30:24.446Z,99309.36
2022-12-12T13:32:57.598Z,99311.52
2022-12-12T13:35:31.112Z,99305.98
2022-12-12T13:37:58.201Z,99306.52
2022-12-12T13:40:31.079Z,99312.31
2022-12-12T13:43:07.231Z,99319.91
2022-12-12T13:45:39.868Z,99320.48
2022-12-12T13:48:26.524Z,99316.59
2022-12-12T13:51:27.387Z,99324.44
2022-12-12T13:54:10.418Z,99328.59
2022-12-12T13:56:47.360Z,99331.44
2022-12-12T13:59:22.685Z,99335.90
2022-12-12T14:01:55.588Z,99344.00
2022-12-12T14:05:05.269Z,99342.91
2022-12-12T14:07:31.743Z,99340.08
2022-12-12T14:09:58.729Z,99341.98
2022-12-12T14:12:32.559Z,99343.92
2022-12-12T14:15:07.909Z,99341.48
2022-12-12T14:17:42.330Z,99351.16
2022-12-12T14:20:25.732Z,99354.18
2022-12-12T14:22:55.494Z,99361.84
2022-12-12T14:25:32.448Z,99359.71
2022-12-12T14:28:03.594Z,99363.20
2022-12-12T14:30:45.178Z,99361.89
2022-12-12T14:33:17.732Z,99363.58
2022-12-12T14:36:07.079Z,99358.73
2022-12-12T14:38:39.026Z,99363.20
2022-12-12T14:41:13.156Z,99356.57
2022-12-12T14:43:47.978Z,99357.73
2022-12-12T14:46:40.911Z,99361.92
2022-12-12T14:49:16.801Z,99360.83
2022-12-12T14:51:45.510Z,99361.42
2022-12-12T14:54:15.946Z,99366.06
2022-12-12T14:56:52.675Z,99368.98
2022-12-12T14:59:22.933Z,99375.87
2022-12-12T15:01:52.117Z,99371.67
2022-12-12T15:04:20.934Z,99373.71
2022-12-12T15:06:52.359Z,99381.17
2022-12-12T15:09:29.171Z,99380.60
2022-12-12T15:12:10.981Z,99388.25
2022-12-12T15:14:39.124Z,99388.25
2022-12-12T15:17:25.711Z,99395.39
2022-12-12T15:20:05.035Z,99390.11
2022-12-12T15:22:56.422Z,99391.66
2022-12-12T15:25:25.017Z,99395.33
2022-12-12T15:27:55.985Z,99393.90
2022-12-12T15:30:38.663Z,99402.79
2022-12-12T15:33:07.488Z,99402.74
2022-12-12T15:35:34.169Z,99404.30
2022-12-12T15:38:04.980Z,99408.18
2022-12-12T15:40:33.387Z,99409.96
2022-12-12T15:43:05.642Z,99410.38
2022-12-12T15:45:31.984Z,99415.61
2022-12-12T15:47:59.389Z,99414.09
2022-12-12T15:50:46.602Z,99418.66
2022-12-12T15:53:34.047Z,99422.01
2022-12-12T15:56:04.890Z,99420.96
2022-12-12T15:58:36.653Z,99424.61
2022-12-12T16:01:21.463Z,99422.17
2022-12-12T16:04:00.247Z,99416.08
2022-12-12T16:06:36.948Z,99418.52
2022-12-12T16:09:06.387Z,99417.08
2022-12-12T16:11:48.784Z,99422.83
2022-12-12T16:14:24.198Z,99427.27
2022-12-12T16:17:20.250Z,99427.09
2022-12-12T16:19:58.503Z,99427.10
2022-12-12T16:22:43.086Z,99431.84
2022-12-12T16:25:33.377Z,99434.14
2022-12-12T16:28:11.607Z,99431.73
2022-12-12T16:30:40.263Z,99434.23
2022-12-12T16:33:33.423Z,99440.52
2022-12-12T16:36:02.644Z,99441.91
2022-12-12T16:38:30.460Z,99450.63
2022-12-12T16:41:14.408Z,99453.19
2022-12-12T16:43:41.426Z,99456.77
2022-12-12T16:46:18.631Z,99453.36
2022-12-12T16:48:45.413Z,99455.73
2022-12-12T16:51:16.377Z,99454.77
2022-12-12T16:53:43.072Z,99458.41
2022-12-12T16:56:12.350Z,99462.67
2022-12-12T16:58:38.886Z,99463.55
2022-12-12T17:01:05.546Z,99469.70
2022-12-12T17:03:32.215Z,99467.34
2022-12-12T17:06:00.169Z,99468.41
2022-12-12T17:08:27.160Z,99469.63
2022-12-12T17:11:09.489Z,99471.60
2022-12-12T17:13:40.681Z,99473.94
2022-12-12T17:16:07.151Z,99476.45
2022-12-12T17:18:33.619Z,99478.10
2022-12-12T17:20:59.995Z,99487.65
2022-12-12T17:23:28.925Z,99492.00
2022-12-12T17:26:04.319Z,99490.34
2022-12-12T17:28:32.865Z,99491.73
2022-12-12T17:30:59.533Z,99499.02
2022-12-12T17:33:26.172Z,99502.15
2022-12-12T17:36:12.835Z,99507.33
2022-12-12T17:38:39.255Z,99509.84
2022-12-12T17:41:10.264Z,99515.94
2022-12-12T17:43:37.051Z,99512.61
2022-12-12T17:46:06.582Z,99516.84
2022-12-12T17:48:35.926Z,99518.25
2022-12-12T17:51:05.205Z,99517.86
2022-12-12T17:53:37.618Z,99524.00
2022-12-12T17:56:08.186Z,99523.35
2022-12-12T17:58:36.276Z,99526.04
2022-12-12T18:01:30.826Z,99527.15
2022-12-12T18:03:58.404Z,99527.23
2022-12-12T18:06:25.766Z,99534.89
2022-12-12T18:08:52.797Z,99533.19
2022-12-12T18:11:26.052Z,99538.87
2022-12-12T18:13:54.462Z,99539.25
2022-12-12T18:16:22.833Z,99541.11
2022-12-12T18:18:51.052Z,99539.20
2022-12-12T18:21:43.201Z,99542.92
2022-12-12T18:24:08.449Z,99547.34
2022-12-12T18:26:35.363Z,99547.80
2022-12-12T18:29:04.357Z,99550.79
2022-12-12T18:31:31.336Z,99550.10
2022-12-12T18:33:58.293Z,99551.16
2022-12-12T18:36:27.084Z,99548.17
2022-12-12T18:38:55.441Z,99554.23
2022-12-12T18:41:21.909Z,99554.04
2022-12-12T18:43:48.403Z,99559.33
2022-12-12T18:46:19.678Z,99559.34
2022-12-12T18:48:47.738Z,99561.63
2022-12-12T18:51:17.183Z,99563.95
2022-12-12T18:53:44.626Z,99563.48
2022-12-12T18:56:14.038Z,99565.21
2022-12-12T18:58:42.558Z,99565.72
2022-12-12T19:01:31.254Z,99566.55
2022-12-12T19:03:59.981Z,99566.11
2022-12-12T19:06:35.222Z,99563.63
2022-12-12T19:09:07.629Z,99569.04
2022-12-12T19:11:35.030Z,99567.74
2022-12-12T19:14:01.542Z,99574.61
2022-12-12T19:16:27.960Z,99574.89
2022-12-12T19:18:54.564Z,99578.96
2022-12-12T19:21:26.705Z,99579.19
2022-12-12T19:23:53.228Z,99578.35
2022-12-12T19:26:26.132Z,99578.37
2022-12-12T19:29:00.648Z,99583.18
2022-12-12T19:31:27.163Z,99589.06
2022-12-12T19:33:53.626Z,99588.41
2022-12-12T19:36:22.348Z,99594.89
2022-12-12T19:38:50.140Z,99601.05
2022-12-12T19:41:17.879Z,99603.80
2022-12-12T19:43:45.743Z,99599.98
2022-12-12T19:46:31.789Z,99597.13
2022-12-12T19:49:00.963Z,99603.34
2022-12-12T19:51:28.667Z,99596.19
2022-12-12T19:53:56.886Z,99610.29
2022-12-12T19:56:26.169Z,99613.55
2022-12-12T19:58:52.642Z,99622.85
2022-12-12T20:01:21.709Z,99625.34
2022-12-12T20:03:50.805Z,99625.70
2022-12-12T20:06:18.685Z,99626.76
2022-12-12T20:08:45.882Z,99631.88
2022-12-12T20:11:14.319Z,99630.96
2022-12-12T20:13:41.662Z,99625.00
2022-12-12T20:16:15.725Z,99629.29
2022-12-12T20:18:42.629Z,99626.55
2022-12-12T20:21:10.059Z,99624.67
2022-12-12T20:23:42.328Z,99624.35
2022-12-12T20:26:16.340Z,99630.17
2022-12-12T20:28:42.891Z,99633.11
2022-12-12T20:31:11.815Z,99640.91
2022-12-12T20:33:38.944Z,99645.02
2022-12-12T20:36:08.235Z,99647.70
2022-12-12T20:38:36.732Z,99654.12
2022-12-12T20:41:09.162Z,99664.88
2022-12-12T20:43:37.774Z,99661.13
2022-12-12T20:46:21.476Z,99665.49
2022-12-12T20:48:48.784Z,99663.38
2022-12-12T20:51:52.977Z,99670.50
2022-12-12T20:54:05.693Z,99672.48
2022-12-12T20:56:33.639Z,99676.61
2022-12-12T20:59:01.861Z,99680.16
2022-12-12T21:01:34.340Z,99680.26
2022-12-12T21:04:02.805Z,99679.13
2022-12-12T21:06:31.361Z,99684.34
2022-12-12T21:09:04.072Z,99676.45
2022-12-12T21:11:31.519Z,99684.46
2022-12-12T21:13:58.197Z,99684.59
2022-12-12T21:16:31.055Z,99688.09
2022-12-12T21:19:00.678Z,99690.58
2022-12-12T21:21:28.000Z,99690.73
2022-12-12T21:23:55.029Z,99694.54
2022-12-12T21:26:28.470Z,99692.73
2022-12-12T21:28:56.301Z,99691.89
2022-12-12T21:31:25.472Z,99691.11
2022-12-12T21:33:52.989Z,99691.45
2022-12-12T21:36:22.070Z,99687.09
2022-12-12T21:38:49.083Z,99683.11
2022-12-12T21:41:18.000Z,99685.79
2022-12-12T21:43:46.048Z,99686.08
2022-12-12T21:46:18.505Z,99687.40
2022-12-12T21:48:45.034Z,99684.36
2022-12-12T21:51:15.347Z,99690.38
2022-12-12T21:53:42.190Z,99686.17
2022-12-12T21:56:16.793Z,99681.90
2022-12-12T21:58:46.255Z,99679.14
2022-12-12T22:01:14.939Z,99689.05
2022-12-12T22:03:41.888Z,99679.84
2022-12-12T22:06:13.676Z,99678.13
2022-12-12T22:08:40.922Z,99681.30
2022-12-12T22:11:08.569Z,99678.06
2022-12-12T22:13:40.108Z,99684.66
2022-12-12T22:16:11.985Z,99689.95
2022-12-12T22:18:38.459Z,99695.80
2022-12-12T22:21:07.370Z,99693.37
2022-12-12T22:23:37.129Z,99695.94
2022-12-12T22:26:20.127Z,99701.17
2022-12-12T22:28:47.646Z,99699.91
2022-12-12T22:31:14.014Z,99703.70
2022-12-12T22:33:40.391Z,99703.29
2022-12-12T22:36:08.915Z,99705.58
2022-12-12T22:38:38.287Z,99704.63
2022-12-12T22:41:06.765Z,99708.20
2022-12-12T22:43:34.076Z,99714.05
2022-12-12T22:46:05.579Z,99709.66
2022-12-12T22:48:33.760Z,99706.48
2022-12-12T22:51:11.198Z,99716.05
2022-12-12T22:53:42.512Z,99719.60
2022-12-12T22:56:11.232Z,99722.63
2022-12-12T22:58:37.965Z,99719.33
2022-12-12T23:01:15.911Z,99720.59
2022-12-12T23:03:43.094Z,99718.84
2022-12-12T23:06:12.863Z,99721.44
2022-12-12T23:08:40.339Z,99725.12
2022-12-12T23:11:14.582Z,99717.80
2022-12-12T23:13:43.543Z,99719.23
2022-12-12T23:16:12.971Z,99714.97
2022-12-12T23:18:39.694Z,99715.15
2022-12-12T23:21:13.369Z,99718.43
2022-12-12T23:23:43.254Z,99721.31
2022-12-12T23:26:12.628Z,99722.75
2022-12-12T23:28:39.416Z,99720.67
2022-12-12T23:31:11.104Z,99725.46
2022-12-12T23:33:37.976Z,99724.25
2022-12-12T23:36:07.493Z,99723.70
2022-12-12T23:38:34.523Z,99724.27
2022-12-12T23:41:09.858Z,99725.76
2022-12-12T23:43:36.490Z,99731.06
2022-12-12T23:46:08.687Z,99731.70
2022-12-12T23:48:35.003Z,99728.09
2022-12-12T23:51:01.350Z,99728.02
2022-12-12T23:53:31.037Z,99729.73
2022-12-12T23:56:02.919Z,99733.19
2022-12-12T23:58:29.563Z,99734.77
